Terminal Aerodrome Forecast
Issued by NWS

Home | Current Version | Previous Version | Text Only | Print | Product List | Glossary On
Versions: 1 2 3 4 5 6 7 8 9 10 11 12 13
000
FTUS44 KBMX 181134
TAFMGM
TAF
KMGM 181134Z 1812/1912 00000KT 3SM -DZ BR SCT005 OVC015
      TEMPO 1812/1815 2SM -DZ BR BKN005
     FM181500 34003KT 4SM RA BR OVC007
     FM181900 27003KT 4SM -RA BR BKN008 OVC012
     FM190200 19002KT 4SM BR OVC004
     FM190600 00000KT 1 1/2SM BR OVC003=

USA.gov is the U.S. government's official web portal to all federal, state and local government web resources and services.